createdAt,value
2022-10-20T00:04:23.913Z,11.36
2022-10-20T00:09:54.108Z,11.18
2022-10-20T00:14:46.386Z,11.11
2022-10-20T00:19:46.321Z,10.97
2022-10-20T00:24:46.266Z,10.84
2022-10-20T00:29:46.182Z,10.86
2022-10-20T00:34:46.108Z,10.82
2022-10-20T00:39:46.072Z,10.87
2022-10-20T00:44:45.982Z,10.89
2022-10-20T00:49:45.910Z,10.90
2022-10-20T00:54:45.870Z,10.94
2022-10-20T00:59:45.786Z,10.86
2022-10-20T01:04:45.702Z,10.74
2022-10-20T01:09:45.712Z,10.60
2022-10-20T01:14:45.671Z,10.49
2022-10-20T01:19:45.516Z,10.42
2022-10-20T01:24:45.457Z,10.37
2022-10-20T01:29:45.377Z,10.30
2022-10-20T01:34:47.940Z,10.33
2022-10-20T01:39:46.241Z,10.34
2022-10-20T01:44:45.187Z,10.38
2022-10-20T01:49:45.099Z,10.38
2022-10-20T01:54:45.031Z,10.42
2022-10-20T01:59:44.969Z,10.53
2022-10-20T02:04:45.076Z,10.61
2022-10-20T02:09:44.865Z,10.54
2022-10-20T02:14:44.763Z,10.49
2022-10-20T02:19:44.798Z,10.41
2022-10-20T02:24:44.653Z,10.41
2022-10-20T02:29:44.569Z,10.38
2022-10-20T02:34:44.511Z,10.41
2022-10-20T02:39:44.423Z,10.44
2022-10-20T02:44:44.374Z,10.48
2022-10-20T02:49:44.298Z,10.44
2022-10-20T02:54:44.228Z,10.42
2022-10-20T02:59:44.158Z,10.42
2022-10-20T03:04:44.104Z,10.34
2022-10-20T03:09:44.041Z,10.26
2022-10-20T03:14:43.942Z,10.23
2022-10-20T03:19:43.931Z,10.20
2022-10-20T03:24:43.839Z,10.19
2022-10-20T03:29:43.743Z,10.23
2022-10-20T03:34:43.695Z,10.19
2022-10-20T03:39:43.623Z,10.26
2022-10-20T03:44:43.569Z,10.26
2022-10-20T03:49:43.477Z,10.33
2022-10-20T03:54:43.483Z,10.31
2022-10-20T03:59:43.344Z,10.34
2022-10-20T04:04:43.279Z,10.33
2022-10-20T04:09:43.308Z,10.33
2022-10-20T04:14:43.159Z,10.28
2022-10-20T04:19:57.771Z,10.22
2022-10-20T04:24:50.150Z,10.22
2022-10-20T04:29:50.081Z,10.20
2022-10-20T04:34:50.007Z,10.16
2022-10-20T04:39:49.953Z,10.17
2022-10-20T04:44:50.048Z,10.22
2022-10-20T04:49:50.175Z,10.25
2022-10-20T04:54:49.743Z,10.28
2022-10-20T04:59:49.740Z,10.31
2022-10-20T05:04:49.607Z,10.30
2022-10-20T05:09:49.557Z,10.31
2022-10-20T05:14:49.508Z,10.22
2022-10-20T05:19:49.415Z,10.17
2022-10-20T05:24:49.336Z,10.09
2022-10-20T05:29:49.286Z,10.04
2022-10-20T05:34:49.208Z,9.95
2022-10-20T05:39:49.274Z,9.92
2022-10-20T05:44:49.080Z,9.87
2022-10-20T05:49:49.033Z,9.86
2022-10-20T05:54:48.940Z,9.91
2022-10-20T05:59:48.876Z,9.91
2022-10-20T06:04:48.804Z,9.95
2022-10-20T06:09:48.806Z,9.99
2022-10-20T06:14:48.685Z,10.05
2022-10-20T06:19:48.626Z,10.09
2022-10-20T06:24:48.538Z,10.10
2022-10-20T06:29:48.510Z,10.15
2022-10-20T06:34:48.407Z,10.17
2022-10-20T06:39:48.335Z,10.23
2022-10-20T06:44:48.274Z,10.30
2022-10-20T06:49:48.291Z,10.38
2022-10-20T06:54:48.141Z,10.53
2022-10-20T06:59:48.065Z,10.71
2022-10-20T07:04:48.026Z,10.93
2022-10-20T07:09:47.974Z,11.11
2022-10-20T07:14:47.883Z,11.23
2022-10-20T07:19:48.122Z,11.50
2022-10-20T07:24:47.797Z,11.65
2022-10-20T07:29:47.653Z,11.73
2022-10-20T07:34:47.662Z,11.83
2022-10-20T07:39:47.527Z,11.90
2022-10-20T07:44:47.507Z,11.91
2022-10-20T07:49:47.423Z,11.95
2022-10-20T07:54:47.370Z,12.03
2022-10-20T07:59:47.530Z,12.27
2022-10-20T08:04:47.188Z,12.55
2022-10-20T08:09:47.145Z,12.86
2022-10-20T08:14:48.482Z,13.49
2022-10-20T08:19:50.433Z,13.90
2022-10-20T08:24:46.915Z,14.23
2022-10-20T08:29:55.073Z,13.96
2022-10-20T08:34:47.801Z,13.63
2022-10-20T08:39:46.837Z,13.44
2022-10-20T08:44:46.674Z,13.56
2022-10-20T08:49:46.597Z,13.62
2022-10-20T08:54:46.557Z,13.59
2022-10-20T08:59:46.507Z,13.59
2022-10-20T09:04:46.383Z,13.77
2022-10-20T09:09:46.320Z,14.15
2022-10-20T09:14:46.262Z,14.23
2022-10-20T09:19:46.365Z,14.05
2022-10-20T09:24:46.167Z,13.96
2022-10-20T09:29:46.037Z,13.89
2022-10-20T09:34:45.966Z,14.00
2022-10-20T09:39:45.902Z,14.11
2022-10-20T09:44:45.830Z,14.14
2022-10-20T09:49:45.861Z,14.05
2022-10-20T09:54:45.800Z,14.07
2022-10-20T09:59:46.069Z,14.22
2022-10-20T10:04:45.592Z,14.37
2022-10-20T10:09:45.515Z,14.72
2022-10-20T10:14:45.436Z,14.91
2022-10-20T10:19:45.367Z,14.89
2022-10-20T10:24:45.494Z,14.92
2022-10-20T10:29:45.244Z,15.46
2022-10-20T10:34:45.183Z,15.82
2022-10-20T10:39:45.448Z,15.62
2022-10-20T10:44:45.034Z,15.29
2022-10-20T10:49:44.991Z,15.11
2022-10-20T10:54:44.902Z,14.88
2022-10-20T10:59:44.825Z,14.85
2022-10-20T11:04:44.766Z,14.89
2022-10-20T11:09:44.701Z,14.84
2022-10-20T11:14:44.641Z,14.82
2022-10-20T11:19:44.577Z,14.78
2022-10-20T11:24:44.469Z,14.65
2022-10-20T11:29:44.420Z,14.55
2022-10-20T11:34:44.358Z,14.54
2022-10-20T11:39:44.331Z,14.60
2022-10-20T11:44:44.260Z,14.50
2022-10-20T11:49:44.153Z,14.48
2022-10-20T11:54:44.089Z,14.41
2022-10-20T11:59:44.035Z,14.29
2022-10-20T12:04:44.045Z,14.29
2022-10-20T12:09:43.895Z,14.28
2022-10-20T12:14:43.797Z,14.25
2022-10-20T12:19:43.816Z,14.26
2022-10-20T12:24:43.731Z,14.30
2022-10-20T12:29:43.611Z,14.37
2022-10-20T12:34:43.565Z,14.41
2022-10-20T12:39:43.550Z,14.33
2022-10-20T12:44:43.585Z,14.43
2022-10-20T12:49:43.336Z,14.53
2022-10-20T12:54:48.334Z,14.43
2022-10-20T12:59:44.229Z,14.44
2022-10-20T13:04:45.408Z,14.65
2022-10-20T13:09:43.074Z,14.66
2022-10-20T13:14:43.022Z,14.60
2022-10-20T13:19:42.943Z,14.50
2022-10-20T13:24:44.942Z,14.53
2022-10-20T13:29:42.810Z,14.59
2022-10-20T13:34:42.781Z,14.66
2022-10-20T13:39:42.665Z,14.62
2022-10-20T13:44:42.605Z,14.55
2022-10-20T13:49:42.571Z,14.45
2022-10-20T13:54:42.553Z,14.37
2022-10-20T13:59:44.641Z,14.35
2022-10-20T14:04:42.338Z,14.40
2022-10-20T14:09:46.497Z,14.40
2022-10-20T14:14:43.193Z,14.35
2022-10-20T14:19:44.645Z,14.28
2022-10-20T14:24:42.067Z,14.22
2022-10-20T14:29:42.069Z,14.22
2022-10-20T14:34:41.931Z,14.14
2022-10-20T14:39:41.885Z,14.07
2022-10-20T14:44:41.830Z,14.00
2022-10-20T14:49:41.826Z,13.96
2022-10-20T14:54:41.743Z,13.86
2022-10-20T14:59:41.613Z,13.86
2022-10-20T15:04:41.535Z,13.83
2022-10-20T15:09:41.498Z,13.87
2022-10-20T15:14:41.394Z,13.96
2022-10-20T15:19:41.341Z,14.00
2022-10-20T15:24:41.247Z,14.05
2022-10-20T15:29:41.208Z,14.07
2022-10-20T15:34:41.159Z,14.08
2022-10-20T15:39:41.188Z,14.14
2022-10-20T15:44:41.008Z,14.15
2022-10-20T15:49:40.917Z,14.20
2022-10-20T15:54:40.833Z,14.15
2022-10-20T15:59:40.770Z,14.05
2022-10-20T16:04:40.707Z,13.96
2022-10-20T16:09:40.654Z,13.90
2022-10-20T16:14:40.605Z,13.86
2022-10-20T16:19:40.498Z,13.81
2022-10-20T16:24:40.663Z,13.77
2022-10-20T16:29:40.378Z,13.77
2022-10-20T16:34:40.289Z,13.72
2022-10-20T16:39:40.306Z,13.71
2022-10-20T16:44:40.158Z,13.67
2022-10-20T16:49:40.096Z,13.65
2022-10-20T16:59:39.968Z,13.65
2022-10-20T17:04:39.946Z,13.63
2022-10-20T17:09:39.856Z,13.59
2022-10-20T17:14:39.752Z,13.57
2022-10-20T17:19:39.842Z,13.56
2022-10-20T17:24:39.698Z,13.53
2022-10-20T17:29:39.568Z,13.54
2022-10-20T17:34:39.514Z,13.54
2022-10-20T17:39:39.440Z,13.52
2022-10-20T17:44:39.363Z,13.50
2022-10-20T17:49:39.271Z,13.49
2022-10-20T17:54:39.322Z,13.50
2022-10-20T17:59:52.111Z,13.52
2022-10-20T18:04:40.109Z,13.57
2022-10-20T18:09:39.052Z,13.59
2022-10-20T18:14:38.965Z,13.63
2022-10-20T18:19:38.887Z,13.65
2022-10-20T18:24:38.845Z,13.65
2022-10-20T18:29:38.808Z,13.67
2022-10-20T18:34:38.682Z,13.71
2022-10-20T18:39:38.618Z,13.71
2022-10-20T18:44:38.545Z,13.67
2022-10-20T18:49:38.538Z,13.62
2022-10-20T18:54:38.446Z,13.62
2022-10-20T18:59:38.401Z,13.63
2022-10-20T19:04:38.341Z,13.68
2022-10-20T19:09:38.478Z,13.70
2022-10-20T19:14:38.311Z,13.71
2022-10-20T19:19:38.075Z,13.74
2022-10-20T19:24:38.017Z,13.81
2022-10-20T19:29:38.428Z,13.87
2022-10-20T19:34:47.556Z,13.83
2022-10-20T19:40:11.152Z,13.86
2022-10-20T19:45:03.564Z,13.95
2022-10-20T19:50:03.477Z,13.97
2022-10-20T19:55:03.417Z,14.00
2022-10-20T20:00:03.395Z,13.99
2022-10-20T20:05:03.351Z,14.04
2022-10-20T20:10:03.239Z,14.05
2022-10-20T20:15:03.150Z,14.05
2022-10-20T20:20:03.067Z,14.04
2022-10-20T20:25:03.012Z,14.03
2022-10-20T20:30:02.935Z,14.03
2022-10-20T20:40:02.824Z,13.97
2022-10-20T20:45:02.782Z,13.96
2022-10-20T20:50:02.680Z,14.00
2022-10-20T20:55:02.596Z,14.07
2022-10-20T21:00:02.565Z,14.11
2022-10-20T21:05:02.458Z,14.14
2022-10-20T21:10:02.398Z,14.17
2022-10-20T21:15:02.509Z,14.17
2022-10-20T21:20:02.274Z,14.18
2022-10-20T21:25:02.252Z,14.15
2022-10-20T21:30:02.172Z,14.18
2022-10-20T21:35:02.052Z,14.20
2022-10-20T21:40:03.804Z,14.22
2022-10-20T21:45:01.954Z,14.22
2022-10-20T21:50:01.841Z,14.25
2022-10-20T21:55:01.793Z,14.29
2022-10-20T22:00:01.714Z,14.32
2022-10-20T22:05:01.719Z,14.33
2022-10-20T22:10:01.577Z,14.35
2022-10-20T22:15:01.693Z,14.36
2022-10-20T22:20:01.439Z,14.40
2022-10-20T22:25:01.345Z,14.40
2022-10-20T22:30:01.328Z,14.43
2022-10-20T22:35:01.264Z,14.43
2022-10-20T22:40:01.212Z,14.44
2022-10-20T22:45:01.125Z,14.44
2022-10-20T22:50:01.100Z,14.45
2022-10-20T22:55:01.000Z,14.47
2022-10-20T23:00:00.897Z,14.43
2022-10-20T23:05:00.847Z,14.44
2022-10-20T23:10:00.750Z,14.40
2022-10-20T23:15:00.695Z,14.36
2022-10-20T23:20:00.612Z,14.37
2022-10-20T23:25:00.559Z,14.36
2022-10-20T23:30:00.475Z,14.35
2022-10-20T23:35:00.437Z,14.32
2022-10-20T23:40:00.379Z,14.33
2022-10-20T23:45:00.287Z,14.30
2022-10-20T23:50:00.221Z,14.30
2022-10-20T23:55:00.149Z,14.32
